Main page
METAR-TAF:

METAR-TAF

Airports :

Niamtougou International Airport

Niamtougou, Togo

latitude: 09-46N, longitude: 001-06E, elevation: 342 m

Current weather observation

The report was made 29 minutes ago, at 16:00 UTC
Wind 3 kt from variable directions
Temperature 38°C
Humidity 15%
Pressure 1008 hPa
Visibility 10 km or more
Few clouds at a height of 1200 ft

METAR: DXNG 081600Z VRB03KT 9999 FEW012 38/07 Q1008

Time: 16:29 (16:29 UTC)

Forecast

The report was made 5 hours and 29 minutes ago, at 11:00 UTC
Forecast valid from 08 at 12 UTC to 09 at 12 UTC
Wind 5 kt from variable directions
Visibility 10 km or more
Few clouds at a height of 1000 ft

TAF: DXNG 081100Z 0812/0912 VRB05KT 9999 FEW010

Weather observations and forecasts of more than 4000 airports (METAR and TAF reports).

The available stations are represented by yellow and red dots on the map.

Hover mouse over dot to see the name of the station.

Then click to see weather observations and forecasts.

To change the map : click on the green buttons with a black cross to zoom in, on the green button with a dash to zoom out, or on the green arrows for adjacent maps.


METAR-TAF: